Time;durP1;ratioP1;P1;durP2;ratioP2;P2;SDS_P1;SDS_P2;PMS_P1;PMS_P2;Temp;Humidity;BMP_temperature;BMP_pressure;BME280_temperature;BME280_humidity;BME280_pressure;Samples;Min_cycle;Max_cycle;Signal;HPM_P1;HPM_P2
2021/08/22 00:01:58;;;;;;;56.08;27.42;;;;;;;16.01;98.20;101593.00;5052708;28;20059;-74
2021/08/22 00:04:23;;;;;;;53.58;27.33;;;;;;;16.00;98.31;101593.97;5052137;28;20037;-75
2021/08/22 00:06:49;;;;;;;55.45;27.70;;;;;;;15.96;98.13;101589.91;5052731;28;20116;-74
2021/08/22 00:09:14;;;;;;;56.13;28.42;;;;;;;15.93;98.29;101579.50;5052625;28;20362;-75
2021/08/22 00:11:40;;;;;;;58.33;27.98;;;;;;;15.88;98.57;101576.44;5051921;28;20420;-74
2021/08/22 00:14:05;;;;;;;60.65;28.85;;;;;;;15.82;98.28;101576.09;5052318;28;20036;-75
2021/08/22 00:16:30;;;;;;;56.95;28.50;;;;;;;15.75;98.57;101572.31;5050619;28;20396;-75
2021/08/22 00:18:56;;;;;;;63.35;29.00;;;;;;;15.67;98.24;101570.41;5052547;28;20090;-75
2021/08/22 00:21:21;;;;;;;58.25;29.40;;;;;;;15.59;98.26;101578.38;5052352;28;20529;-74
2021/08/22 00:23:46;;;;;;;61.17;31.23;;;;;;;15.51;98.06;101572.94;5051315;28;20033;-75
2021/08/22 00:26:12;;;;;;;60.30;28.63;;;;;;;15.44;98.38;101571.88;5052604;28;20072;-74
2021/08/22 00:28:37;;;;;;;66.97;31.63;;;;;;;15.40;97.98;101581.22;5051666;28;20033;-75
2021/08/22 00:31:02;;;;;;;87.65;36.22;;;;;;;15.43;98.44;101581.72;5052284;28;20048;-74
2021/08/22 00:33:28;;;;;;;83.18;35.75;;;;;;;15.47;98.59;101576.91;5051647;28;20037;-74
2021/08/22 00:35:53;;;;;;;104.25;40.15;;;;;;;15.53;98.58;101573.63;5050862;28;20465;-74
2021/08/22 00:38:19;;;;;;;89.40;37.50;;;;;;;15.60;98.60;101576.50;5051885;28;20040;-74
2021/08/22 00:40:44;;;;;;;83.22;37.20;;;;;;;15.61;98.63;101576.38;5051515;28;20065;-75
2021/08/22 00:43:09;;;;;;;82.43;35.70;;;;;;;15.57;98.89;101575.00;5051790;28;20025;-74
2021/08/22 00:45:37;;;;;;;83.18;34.25;;;;;;;15.50;98.57;101573.94;5051534;28;20068;-74
2021/08/22 00:48:03;;;;;;;55.83;26.83;;;;;;;15.43;98.49;101579.03;5052128;28;20033;-74
2021/08/22 00:50:29;;;;;;;102.72;40.25;;;;;;;15.38;98.61;101581.38;5054221;28;20033;-75
2021/08/22 00:52:54;;;;;;;97.05;38.95;;;;;;;15.36;98.65;101582.50;5056240;28;20449;-74
2021/08/22 00:55:21;;;;;;;109.10;43.47;;;;;;;15.39;98.97;101583.06;5054638;28;20063;-74
2021/08/22 00:57:49;;;;;;;125.10;48.05;;;;;;;15.47;98.74;101593.00;5055234;28;20032;-74
2021/08/22 01:00:15;;;;;;;120.28;47.70;;;;;;;15.55;98.84;101582.34;5055803;28;20025;-74
2021/08/22 01:02:50;;;;;;;124.00;46.10;;;;;;;15.61;98.81;101578.22;5055407;28;20090;-74
2021/08/22 01:05:44;;;;;;;112.55;45.58;;;;;;;15.68;99.17;101582.81;5056475;28;20039;-74
2021/08/22 01:08:15;;;;;;;107.25;41.30;;;;;;;15.74;99.07;101581.34;5055956;28;20457;-75
2021/08/22 01:10:42;;;;;;;130.48;45.88;;;;;;;15.77;99.27;101580.19;5054921;28;20424;-75
2021/08/22 01:13:11;;;;;;;117.95;44.40;;;;;;;15.80;98.87;101571.88;5055813;28;20079;-74
2021/08/22 01:15:40;;;;;;;118.00;43.75;;;;;;;15.82;99.02;101572.53;5054807;28;20040;-75
2021/08/22 01:18:10;;;;;;;101.45;41.42;;;;;;;15.85;99.19;101572.22;5055478;28;20064;-75
2021/08/22 01:20:55;;;;;;;116.38;43.63;;;;;;;15.85;99.27;101569.56;5054687;28;20045;-75
2021/08/22 01:23:22;;;;;;;116.55;42.85;;;;;;;15.85;99.59;101573.09;5055863;28;20033;-75
2021/08/22 01:25:49;;;;;;;117.90;42.42;;;;;;;15.88;99.15;101565.72;5054954;28;20059;-75
2021/08/22 01:28:14;;;;;;;119.35;44.58;;;;;;;15.87;99.38;101572.94;5055345;28;20033;-75
2021/08/22 01:30:46;;;;;;;108.45;41.17;;;;;;;15.88;99.39;101571.91;5054777;28;20040;-75
2021/08/22 01:33:12;;;;;;;;;;;;;;;15.85;99.35;101561.50;5055850;28;20028;-74
2021/08/22 01:35:39;;;;;;;113.35;41.83;;;;;;;15.79;99.10;101568.31;5054878;28;19915;-75
2021/08/22 01:38:05;;;;;;;121.32;42.13;;;;;;;15.73;99.31;101560.03;5056001;28;20484;-74
2021/08/22 01:40:32;;;;;;;110.30;41.38;;;;;;;15.71;99.42;101564.72;5054911;28;20111;-74
2021/08/22 01:42:58;;;;;;;116.18;45.30;;;;;;;15.67;99.17;101562.34;5054688;28;20057;-74
2021/08/22 01:45:25;;;;;;;115.47;45.63;;;;;;;15.68;99.30;101560.50;5055172;28;20481;-73
2021/08/22 01:47:51;;;;;;;130.07;44.95;;;;;;;15.71;99.42;101564.72;5054748;28;20043;-74
2021/08/22 01:50:19;;;;;;;117.45;44.33;;;;;;;15.75;99.35;101560.72;5055250;28;20025;-74
2021/08/22 01:52:44;;;;;;;142.68;50.00;;;;;;;15.77;99.18;101564.94;5054433;28;20108;-75
2021/08/22 01:55:10;;;;;;;136.63;50.90;;;;;;;15.81;99.34;101563.66;5054722;28;20124;-74
2021/08/22 01:57:38;;;;;;;151.60;51.75;;;;;;;15.83;99.45;101558.97;5054869;28;20239;-76
2021/08/22 02:00:05;;;;;;;145.82;53.47;;;;;;;15.84;99.11;101555.31;5054062;28;20052;-74
2021/08/22 02:02:30;;;;;;;145.35;53.47;;;;;;;15.85;99.53;101566.88;5054650;28;20049;-74
2021/08/22 02:05:00;;;;;;;116.05;44.85;;;;;;;15.90;99.43;101558.34;5054166;28;20029;-74
2021/08/22 02:07:30;;;;;;;152.02;53.78;;;;;;;15.89;99.56;101562.03;5054555;28;20390;-74
2021/08/22 02:10:26;;;;;;;143.15;50.30;;;;;;;15.85;99.48;101559.69;5054123;28;20021;-74
2021/08/22 02:12:57;;;;;;;143.57;50.35;;;;;;;15.88;99.47;101557.66;5054124;28;20062;-74
2021/08/22 02:15:27;;;;;;;143.23;47.03;;;;;;;15.86;99.60;101560.50;5054782;28;20437;-74
2021/08/22 02:18:07;;;;;;;134.57;46.08;;;;;;;15.83;99.35;101560.81;5053996;28;20021;-74
2021/08/22 02:20:33;;;;;;;122.70;45.30;;;;;;;15.82;99.35;101546.56;5054383;28;20052;-74
2021/08/22 02:23:01;;;;;;;145.48;50.45;;;;;;;15.83;99.45;101550.09;5053627;28;20037;-74
2021/08/22 02:25:30;;;;;;;142.23;50.08;;;;;;;15.79;99.35;101549.53;5053969;28;20116;-74
2021/08/22 02:27:58;;;;;;;150.43;52.92;;;;;;;15.78;99.38;101549.69;5053670;28;20381;-74
2021/08/22 02:30:23;;;;;;;166.65;56.00;;;;;;;15.74;99.30;101551.84;5053953;28;20510;-74
2021/08/22 02:32:49;;;;;;;191.13;61.13;;;;;;;15.77;99.53;101559.56;5052229;28;20112;-74
2021/08/22 02:35:15;;;;;;;181.48;59.95;;;;;;;15.79;99.59;101552.22;5053960;28;20036;-74
2021/08/22 02:37:40;;;;;;;160.65;55.90;;;;;;;15.82;99.91;101554.63;5053934;28;20037;-74
2021/08/22 02:40:06;;;;;;;170.35;57.58;;;;;;;15.86;99.35;101561.34;5053411;28;20065;-74
2021/08/22 02:42:32;;;;;;;146.10;47.47;;;;;;;15.89;99.56;101562.88;5053832;28;20040;-74
2021/08/22 02:44:57;;;;;;;151.45;50.22;;;;;;;15.90;99.58;101556.53;5053013;28;20029;-74
2021/08/22 02:47:22;;;;;;;125.00;42.78;;;;;;;15.92;99.58;101564.41;5053752;28;20032;-74
2021/08/22 02:49:48;;;;;;;54.58;20.92;;;;;;;15.90;99.54;101561.03;5053101;28;20064;-74
2021/08/22 02:52:13;;;;;;;52.10;18.98;;;;;;;15.88;99.67;101563.88;5054006;28;20065;-74
2021/08/22 02:54:39;;;;;;;35.45;11.88;;;;;;;15.85;99.99;101558.81;5053487;28;20041;-74
2021/08/22 02:57:04;;;;;;;30.48;12.27;;;;;;;15.80;99.64;101553.91;5053222;28;20098;-74
2021/08/22 02:59:30;;;;;;;22.20;11.15;;;;;;;15.77;99.53;101554.19;5053831;28;20119;-74
2021/08/22 03:01:55;;;;;;;30.80;12.15;;;;;;;15.68;99.46;101549.78;5052912;28;20052;-74
2021/08/22 03:04:20;;;;;;;32.25;12.57;;;;;;;15.61;99.24;101548.72;5053767;28;20158;-74
2021/08/22 03:06:46;;;;;;;22.77;13.13;;;;;;;15.53;99.32;101541.44;5053128;28;20099;-76
2021/08/22 03:09:11;;;;;;;35.50;15.75;;;;;;;15.50;99.16;101541.75;5053350;28;20366;-74
2021/08/22 03:11:37;;;;;;;42.03;17.10;;;;;;;15.45;99.13;101544.91;5053272;28;20526;-74
2021/08/22 03:14:02;;;;;;;36.08;16.95;;;;;;;15.41;99.11;101550.72;5052791;28;20436;-75
2021/08/22 03:16:28;;;;;;;39.17;17.85;;;;;;;15.38;98.84;101551.88;5054075;28;20037;-73
2021/08/22 03:18:54;;;;;;;49.17;21.95;;;;;;;15.37;99.05;101560.91;5052616;28;20029;-74
2021/08/22 03:21:19;;;;;;;48.40;21.42;;;;;;;15.37;99.19;101554.69;5053299;28;20025;-73
2021/08/22 03:23:45;;;;;;;62.53;25.95;;;;;;;15.34;99.18;101551.31;5053327;28;20050;-74
2021/08/22 03:26:10;;;;;;;61.05;27.55;;;;;;;15.34;99.17;101562.03;5052184;28;20032;-74
2021/08/22 03:28:36;;;;;;;85.75;30.70;;;;;;;15.34;99.26;101558.53;5053400;28;20395;-73
2021/08/22 03:31:03;;;;;;;80.45;33.10;;;;;;;15.31;99.37;101556.16;5052204;28;20400;-74
2021/08/22 03:33:29;;;;;;;106.38;35.95;;;;;;;15.32;99.14;101555.16;5052709;28;20377;-74
2021/08/22 03:35:54;;;;;;;107.15;38.83;;;;;;;15.33;99.38;101555.00;5052272;28;20477;-74
2021/08/22 03:38:20;;;;;;;158.55;44.45;;;;;;;15.40;99.44;101559.75;5052975;28;20037;-74
2021/08/22 03:40:45;;;;;;;149.75;44.33;;;;;;;15.45;99.29;101555.63;5052711;28;20040;-74
2021/08/22 03:43:11;;;;;;;135.77;43.63;;;;;;;15.48;99.42;101549.94;5052210;28;20037;-74
2021/08/22 03:45:36;;;;;;;156.82;50.28;;;;;;;15.55;99.50;101554.69;5052960;28;20036;-73
2021/08/22 03:48:02;;;;;;;133.52;43.63;;;;;;;15.58;99.76;101559.75;5052146;28;20111;-74
2021/08/22 03:50:27;;;;;;;172.85;53.33;;;;;;;15.62;99.60;101553.09;5052891;28;20036;-74
2021/08/22 03:52:53;;;;;;;169.95;53.35;;;;;;;15.64;99.67;101557.28;5051827;28;20119;-74
2021/08/22 03:55:19;;;;;;;177.40;55.03;;;;;;;15.66;99.50;101559.84;5052564;28;20098;-73
2021/08/22 03:57:45;;;;;;;188.18;58.92;;;;;;;15.64;99.73;101559.97;5052799;28;20037;-74
2021/08/22 04:00:11;;;;;;;141.98;51.20;;;;;;;15.62;99.55;101553.09;5052080;28;20037;-74
2021/08/22 04:02:36;;;;;;;157.70;55.65;;;;;;;15.61;99.19;101554.06;5052578;28;20053;-74
2021/08/22 04:05:04;;;;;;;150.93;54.47;;;;;;;15.59;99.44;101562.28;5051910;28;20043;-74
2021/08/22 04:07:29;;;;;;;153.45;54.15;;;;;;;15.57;99.34;101556.22;5052472;28;20035;-74
2021/08/22 04:09:55;;;;;;;163.80;56.08;;;;;;;15.52;99.27;101562.06;5051875;28;20120;-75
2021/08/22 04:12:21;;;;;;;168.75;59.65;;;;;;;15.51;99.27;101556.84;5052239;28;20025;-74
2021/08/22 04:14:46;;;;;;;175.32;60.17;;;;;;;15.50;99.07;101565.88;5052196;28;20116;-74
2021/08/22 04:17:12;;;;;;;143.45;52.97;;;;;;;15.50;99.39;101558.66;5050639;28;20086;-74
2021/08/22 04:19:37;;;;;;;144.60;52.03;;;;;;;15.49;99.19;101558.84;5052323;28;20040;-74
2021/08/22 04:22:03;;;;;;;134.32;51.33;;;;;;;15.48;99.14;101562.50;5051851;28;20154;-74
2021/08/22 04:24:29;;;;;;;152.95;54.45;;;;;;;15.47;99.01;101558.16;5051549;28;20079;-74
2021/08/22 04:26:54;;;;;;;132.48;51.22;;;;;;;15.47;99.08;101552.78;5052614;28;20061;-73
2021/08/22 04:29:19;;;;;;;119.93;47.63;;;;;;;15.48;98.76;101560.69;5051774;28;20076;-74
2021/08/22 04:31:45;;;;;;;119.55;48.45;;;;;;;15.49;98.91;101556.16;5052412;28;20041;-73
2021/08/22 04:34:10;;;;;;;131.38;48.55;;;;;;;15.48;98.81;101559.81;5051396;28;20040;-74
2021/08/22 04:36:35;;;;;;;112.95;43.95;;;;;;;15.48;98.76;101560.69;5052302;28;20035;-73
2021/08/22 04:39:01;;;;;;;121.07;48.22;;;;;;;15.47;98.75;101548.25;5051854;28;20033;-74
2021/08/22 04:41:26;;;;;;;123.88;50.97;;;;;;;15.47;98.74;101550.94;5052271;28;20029;-73
2021/08/22 04:43:52;;;;;;;123.72;51.70;;;;;;;15.48;98.79;101544.59;5051864;28;20039;-73
2021/08/22 04:46:18;;;;;;;127.60;52.47;;;;;;;15.48;98.84;101549.94;5051570;28;20385;-73
2021/08/22 04:48:44;;;;;;;124.10;51.20;;;;;;;15.48;98.82;101551.78;5052220;28;20491;-73
2021/08/22 04:51:09;;;;;;;132.30;51.88;;;;;;;15.48;98.87;101549.09;5067312;28;20128;-73
2021/08/22 04:53:34;;;;;;;121.63;50.38;;;;;;;15.50;98.55;101544.44;5051863;28;20033;-73
2021/08/22 04:56:00;;;;;;;118.65;47.80;;;;;;;15.50;98.83;101545.25;5051663;28;20037;-73
2021/08/22 04:58:25;;;;;;;126.53;51.17;;;;;;;15.50;98.76;101537.22;5052068;28;20045;-73
2021/08/22 05:00:51;;;;;;;125.63;50.78;;;;;;;15.52;98.51;101534.38;5052194;28;20510;-73
2021/08/22 05:03:16;;;;;;;116.35;47.95;;;;;;;15.53;98.63;101541.44;5051720;28;20060;-73
2021/08/22 05:05:41;;;;;;;103.68;43.10;;;;;;;15.52;98.64;101537.94;5051725;28;20036;-73
2021/08/22 05:08:07;;;;;;;107.10;43.78;;;;;;;15.56;98.51;101546.50;5050994;28;20459;-74
2021/08/22 05:10:32;;;;;;;96.57;42.15;;;;;;;15.56;98.38;101542.97;5051714;28;20033;-74
2021/08/22 05:12:57;;;;;;;90.70;42.72;;;;;;;15.56;98.55;101542.97;5052102;28;20404;-74
2021/08/22 05:15:23;;;;;;;96.30;42.20;;;;;;;15.58;98.40;101547.16;5051684;28;20065;-74
2021/08/22 05:17:48;;;;;;;88.53;40.95;;;;;;;15.60;98.27;101541.66;5051653;28;20025;-74
2021/08/22 05:20:13;;;;;;;97.45;41.40;;;;;;;15.61;98.26;101546.03;5050918;28;20032;-74
2021/08/22 05:22:39;;;;;;;90.60;39.67;;;;;;;15.63;98.35;101552.06;5050642;28;20040;-74
2021/08/22 05:25:05;;;;;;;91.00;39.13;;;;;;;15.67;98.57;101556.13;5050952;28;20040;-74
2021/08/22 05:27:30;;;;;;;86.72;41.55;;;;;;;15.67;98.29;101551.63;5051774;28;20040;-74
2021/08/22 05:29:55;;;;;;;82.78;39.17;;;;;;;15.69;98.34;101560.34;5051862;28;20108;-73
2021/08/22 05:32:21;;;;;;;87.22;40.75;;;;;;;15.74;98.13;101551.00;5050845;28;20037;-74
2021/08/22 05:34:46;;;;;;;82.38;37.67;;;;;;;15.77;98.00;101550.69;5051621;28;20470;-74
2021/08/22 05:37:11;;;;;;;75.47;37.75;;;;;;;15.79;98.30;101554.06;5070008;28;20037;-74
2021/08/22 05:39:37;;;;;;;73.40;34.47;;;;;;;15.79;97.84;101556.75;5054245;28;20147;-74
2021/08/22 05:42:03;;;;;;;71.97;35.80;;;;;;;15.80;98.11;101561.97;5055219;28;20067;-74
2021/08/22 05:44:30;;;;;;;72.07;35.95;;;;;;;15.79;97.93;101562.97;5070121;28;20025;-74
2021/08/22 05:46:55;;;;;;;70.50;36.08;;;;;;;15.77;97.52;101559.56;5055473;28;20029;-74
2021/08/22 05:49:21;;;;;;;75.47;36.40;;;;;;;15.81;97.55;101562.84;5054930;28;20489;-74
2021/08/22 05:51:47;;;;;;;76.07;37.35;;;;;;;15.81;97.76;101560.97;5055213;28;20036;-74
2021/08/22 05:54:12;;;;;;;77.85;36.55;;;;;;;15.84;97.81;101566.03;5054350;28;20040;-74
2021/08/22 05:56:38;;;;;;;80.00;36.78;;;;;;;15.84;97.72;101557.97;5056065;28;20545;-74
2021/08/22 05:59:03;;;;;;;72.22;34.78;;;;;;;15.84;97.56;101566.03;5054096;28;20484;-74
2021/08/22 06:01:28;;;;;;;78.97;36.03;;;;;;;15.83;97.54;101563.50;5054989;28;20060;-74
2021/08/22 06:03:54;;;;;;;77.88;37.13;;;;;;;15.84;97.72;101563.34;5056896;28;20072;-74
2021/08/22 06:06:19;;;;;;;68.88;33.55;;;;;;;15.85;97.59;101570.41;5054542;28;20108;-74
2021/08/22 06:08:45;;;;;;;70.25;34.63;;;;;;;15.86;97.58;101568.56;5055549;28;20072;-74
2021/08/22 06:11:10;;;;;;;71.80;35.70;;;;;;;15.90;97.62;101572.63;5054334;28;20029;-74
2021/08/22 06:13:35;;;;;;;58.67;29.08;;;;;;;15.95;97.29;101567.63;5054742;28;20037;-74
2021/08/22 06:16:01;;;;;;;51.35;27.10;;;;;;;15.95;97.27;101569.47;5054771;28;20469;-73
2021/08/22 06:18:26;;;;;;;60.40;27.73;;;;;;;15.97;96.65;101570.13;5052637;28;20033;-74
2021/08/22 06:20:52;;;;;;;46.50;25.95;;;;;;;16.03;96.92;101570.38;5054189;28;20033;-73
2021/08/22 06:23:17;;;;;;;47.83;24.33;;;;;;;16.05;96.69;101567.53;5053452;28;20076;-73
2021/08/22 06:25:43;;;;;;;42.63;21.92;;;;;;;16.13;96.33;101574.78;5070040;28;20048;-73
2021/08/22 06:28:08;;;;;;;47.25;25.08;;;;;;;16.15;95.82;101578.16;5054543;28;20053;-73
2021/08/22 06:30:34;;;;;;;37.35;20.52;;;;;;;16.21;95.81;101582.88;5053657;28;20033;-73
2021/08/22 06:32:59;;;;;;;36.28;19.73;;;;;;;16.27;94.67;101581.41;5054178;28;20029;-73
2021/08/22 06:35:24;;;;;;;30.60;17.33;;;;;;;16.31;94.46;101580.94;5053774;28;20033;-73
2021/08/22 06:37:51;;;;;;;36.88;20.83;;;;;;;16.32;94.04;101579.94;5054421;28;20086;-73
2021/08/22 06:40:17;;;;;;;27.38;17.25;;;;;;;16.33;93.98;101583.47;5053680;28;20469;-74
2021/08/22 06:42:43;;;;;;;34.92;19.92;;;;;;;16.32;94.09;101579.94;5054005;28;20385;-73
2021/08/22 06:45:08;;;;;;;35.35;18.90;;;;;;;16.32;94.18;101589.84;5054243;28;20123;-73
2021/08/22 06:47:33;;;;;;;30.35;17.40;;;;;;;16.34;93.99;101591.34;5052466;28;20124;-74
2021/08/22 06:49:59;;;;;;;37.25;19.50;;;;;;;16.33;94.09;101592.38;5054400;28;20079;-74
2021/08/22 06:52:25;;;;;;;34.67;18.33;;;;;;;16.36;94.27;101589.38;5053595;28;20366;-74
2021/08/22 06:54:50;;;;;;;33.55;19.75;;;;;;;16.39;94.35;101589.06;5053780;28;20116;-74
2021/08/22 06:57:17;;;;;;;29.73;15.32;;;;;;;16.40;93.28;101589.88;5068666;28;20502;-75
2021/08/22 06:59:42;;;;;;;31.45;16.70;;;;;;;16.42;93.56;101593.28;5053546;28;20056;-74
2021/08/22 07:02:10;;;;;;;40.03;19.15;;;;;;;16.42;93.89;101592.41;5052540;28;20053;-74
2021/08/22 07:04:35;;;;;;;28.63;17.58;;;;;;;16.43;93.79;101605.69;5068069;28;20086;-74
2021/08/22 07:07:01;;;;;;;25.75;16.00;;;;;;;16.44;93.53;101603.84;5053837;28;20125;-74
2021/08/22 07:09:26;;;;;;;26.20;15.80;;;;;;;16.50;94.01;101603.22;5053127;28;20488;-74
2021/08/22 07:11:51;;;;;;;22.20;13.57;;;;;;;16.60;93.24;101600.41;5053528;28;20037;-74
2021/08/22 07:14:17;;;;;;;25.65;14.20;;;;;;;16.65;91.45;101600.78;5052854;28;20041;-74
2021/08/22 07:16:42;;;;;;;27.08;13.93;;;;;;;16.72;91.78;101608.03;5053536;28;20036;-74
2021/08/22 07:19:08;;;;;;;31.73;14.65;;;;;;;16.80;92.02;101604.53;5053558;28;20032;-74
2021/08/22 07:21:33;;;;;;;23.95;13.77;;;;;;;16.85;91.75;101607.56;5052789;28;20041;-74
2021/08/22 07:23:59;;;;;;;20.67;13.15;;;;;;;16.89;91.95;101608.13;5068388;28;20104;-74
2021/08/22 07:26:24;;;;;;;27.15;14.00;;;;;;;16.94;91.58;101604.94;5052516;28;20400;-74
2021/08/22 07:28:49;;;;;;;21.60;12.05;;;;;;;16.98;89.71;101609.84;5053510;28;20111;-74
2021/08/22 07:31:15;;;;;;;21.67;13.38;;;;;;;16.99;90.80;101613.34;5053008;28;20041;-73
2021/08/22 07:33:41;;;;;;;22.50;12.38;;;;;;;17.04;90.75;101611.03;5052580;28;20039;-73
2021/08/22 07:36:06;;;;;;;22.80;12.50;;;;;;;17.13;90.29;101610.06;5053145;28;20037;-74
2021/08/22 07:38:32;;;;;;;23.63;12.18;;;;;;;17.31;90.02;101609.94;5052808;28;20065;-74
2021/08/22 07:40:57;;;;;;;17.55;10.88;;;;;;;17.45;89.16;101613.81;5052895;28;20029;-74
2021/08/22 07:43:23;;;;;;;15.02;9.55;;;;;;;17.56;87.33;101602.75;5051891;28;20037;-73
2021/08/22 07:45:48;;;;;;;16.95;10.07;;;;;;;17.66;88.19;101602.59;5052438;28;20044;-73
2021/08/22 07:48:13;;;;;;;23.65;9.80;;;;;;;17.74;86.30;101593.69;5052681;28;20033;-74
2021/08/22 07:50:39;;;;;;;18.27;9.23;;;;;;;17.82;86.34;101599.03;5051961;28;20040;-74
2021/08/22 07:53:05;;;;;;;19.13;10.20;;;;;;;18.00;86.37;101604.28;5068088;28;20091;-73
2021/08/22 07:55:30;;;;;;;21.33;9.13;;;;;;;18.03;84.95;101608.50;5052285;28;20124;-73
2021/08/22 07:57:55;;;;;;;17.13;9.18;;;;;;;18.06;86.43;101600.91;5052840;28;20037;-73
2021/08/22 08:00:21;;;;;;;17.02;8.70;;;;;;;18.13;85.98;101609.16;5068426;28;20048;-73
2021/08/22 08:02:47;;;;;;;14.50;8.90;;;;;;;18.12;85.39;101610.16;5051858;28;20190;-72
2021/08/22 08:05:13;;;;;;;33.67;10.43;;;;;;;18.05;86.43;101615.41;5052670;28;20432;-72
2021/08/22 08:07:39;;;;;;;20.08;9.25;;;;;;;17.71;86.48;101618.22;5051711;28;20060;-73
2021/08/22 08:10:06;;;;;;;47.42;11.45;;;;;;;17.32;88.55;101621.53;5052702;28;20500;-75
2021/08/22 08:12:32;;;;;;;41.00;12.98;;;;;;;16.99;90.68;101618.72;5051985;28;20037;-74
2021/08/22 08:14:57;;;;;;;36.78;13.90;;;;;;;16.77;92.20;101626.34;5052635;28;20144;-74
2021/08/22 08:17:23;;;;;;;50.22;13.13;;;;;;;16.61;92.01;101637.00;5052304;28;20029;-74
2021/08/22 08:19:49;;;;;;;34.92;13.93;;;;;;;16.45;93.28;101637.75;5052272;28;20151;-74
2021/08/22 08:22:14;;;;;;;27.25;15.13;;;;;;;16.36;94.25;101629.66;5052450;28;20461;-74
2021/08/22 08:24:41;;;;;;;32.67;15.48;;;;;;;16.34;95.01;101625.44;5051541;28;20037;-74
2021/08/22 08:27:06;;;;;;;32.25;14.95;;;;;;;16.28;94.94;101634.13;5052081;28;20025;-73
2021/08/22 08:29:31;;;;;;;32.97;15.10;;;;;;;16.29;95.49;101642.03;5051104;28;20039;-73
2021/08/22 08:31:57;;;;;;;34.00;16.98;;;;;;;16.30;95.69;101630.28;5052377;28;20029;-74
2021/08/22 08:34:22;;;;;;;31.70;15.55;;;;;;;16.28;95.64;101631.44;5052306;28;20488;-73
2021/08/22 08:36:47;;;;;;;42.67;17.60;;;;;;;16.31;95.60;101631.13;5067043;28;20029;-73
2021/08/22 08:39:13;;;;;;;35.10;18.25;;;;;;;16.32;95.89;101643.56;5052239;28;20087;-73
2021/08/22 08:41:38;;;;;;;38.50;17.95;;;;;;;16.35;96.19;101632.50;5051305;28;20029;-73
2021/08/22 08:44:04;;;;;;;39.85;17.80;;;;;;;16.38;96.54;101630.31;5051938;28;20040;-73
2021/08/22 08:46:50;;;;;;;41.53;20.02;;;;;;;16.45;96.43;101640.44;5051763;28;20040;-73
2021/08/22 08:49:26;;;;;;;38.92;16.67;;;;;;;16.48;96.54;101642.81;5052051;28;20082;-72
2021/08/22 08:51:54;;;;;;;52.15;19.88;;;;;;;16.46;96.35;101637.59;5051434;28;20107;-73
2021/08/22 08:54:38;;;;;;;44.13;18.48;;;;;;;16.51;95.98;101637.97;5051571;28;20033;-74
2021/08/22 08:57:05;;;;;;;35.95;17.73;;;;;;;16.57;96.20;101639.19;5052149;28;20040;-74
2021/08/22 08:59:33;;;;;;;51.85;18.15;;;;;;;16.65;96.28;101641.06;5051462;28;20029;-75
2021/08/22 09:01:59;;;;;;;38.08;17.10;;;;;;;16.65;95.51;101638.38;5051770;28;20081;-73
2021/08/22 09:04:27;;;;;;;34.83;17.55;;;;;;;16.69;95.39;101643.28;5052175;28;20128;-73
2021/08/22 09:07:21;;;;;;;29.02;15.77;;;;;;;16.78;94.79;101640.63;5051441;28;20057;-74
2021/08/22 09:10:43;;;;;;;32.85;16.17;;;;;;;16.87;94.04;101643.22;5051379;28;20037;-73
2021/08/22 09:13:14;;;;;;;;;;;;;;;16.99;94.42;101649.16;5054189;28;20112;-74
2021/08/22 09:16:16;;;;;;;25.17;13.45;;;;;;;17.04;92.87;101646.81;5053056;28;19935;-74
2021/08/22 09:19:19;;;;;;;28.40;14.45;;;;;;;17.13;93.23;101655.75;5055067;28;20037;-73
2021/08/22 09:22:29;;;;;;;30.30;14.48;;;;;;;17.20;93.23;101645.22;5054989;28;20078;-73
2021/08/22 09:25:32;;;;;;;31.00;16.17;;;;;;;17.30;93.74;101653.13;5053944;28;20405;-73
2021/08/22 09:28:34;;;;;;;27.40;14.90;;;;;;;17.33;92.37;101656.34;5055157;28;20032;-73
2021/08/22 09:31:37;;;;;;;26.90;13.98;;;;;;;17.30;92.39;101653.13;5055733;28;20029;-72
2021/08/22 09:34:21;;;;;;;22.98;11.48;;;;;;;17.13;91.76;101657.63;5055380;28;20036;-73
2021/08/22 09:37:27;;;;;;;23.30;12.27;;;;;;;16.99;92.36;101664.44;5054773;28;20031;-72
2021/08/22 09:40:43;;;;;;;30.98;13.43;;;;;;;16.92;93.66;101667.75;5052460;28;20033;-73
2021/08/22 09:43:15;;;;;;;34.03;14.18;;;;;;;16.93;93.85;101668.63;5055322;28;20025;-72
2021/08/22 09:45:59;;;;;;;28.45;14.60;;;;;;;16.97;94.08;101667.28;5054951;28;20475;-73
2021/08/22 09:48:43;;;;;;;29.25;14.23;;;;;;;17.04;94.26;101665.63;5054043;28;20024;-73
2021/08/22 09:51:46;;;;;;;18.40;10.77;;;;;;;17.00;92.37;101669.63;5055288;28;20040;-73
2021/08/22 09:54:49;;;;;;;18.95;10.27;;;;;;;16.97;92.80;101669.13;5054962;28;20366;-72
2021/08/22 09:57:52;;;;;;;20.25;10.40;;;;;;;16.94;93.62;101680.22;5055077;28;20036;-71
2021/08/22 10:00:35;;;;;;;15.75;8.70;;;;;;;16.89;93.50;101683.38;5055041;28;20086;-72
2021/08/22 10:03:09;;;;;;;16.23;7.68;;;;;;;16.70;92.70;101681.72;5054065;28;20049;-73
2021/08/22 10:05:49;;;;;;;14.15;6.57;;;;;;;16.55;93.46;101678.78;5055075;28;20052;-73
2021/08/22 10:08:28;;;;;;;16.77;7.03;;;;;;;16.43;94.01;101672.00;5054980;28;20025;-72
2021/08/22 10:11:04;;;;;;;11.95;5.90;;;;;;;16.28;93.94;101669.88;5055017;28;20102;-73
2021/08/22 10:13:30;;;;;;;22.00;7.78;;;;;;;16.22;94.55;101670.50;5055172;28;20044;-74
2021/08/22 10:15:56;;;;;;;17.80;8.48;;;;;;;16.20;95.46;101667.97;5053943;28;20032;-74
2021/08/22 10:18:22;;;;;;;18.20;7.30;;;;;;;16.21;95.31;101664.28;5054599;28;20074;-73
2021/08/22 10:20:49;;;;;;;14.90;8.20;;;;;;;16.24;95.50;101673.84;5054376;28;20037;-73
2021/08/22 10:23:43;;;;;;;16.00;7.93;;;;;;;16.33;95.95;101672.06;5053401;28;20428;-74
2021/08/22 10:26:09;;;;;;;14.57;8.15;;;;;;;16.34;95.52;101671.09;5053451;28;20123;-75
2021/08/22 10:28:44;;;;;;;18.17;8.00;;;;;;;16.38;95.73;101669.78;5054573;28;20051;-74
2021/08/22 10:31:09;;;;;;;15.77;7.20;;;;;;;16.44;95.77;101674.53;5054432;28;20047;-74
2021/08/22 10:33:34;;;;;;;10.35;5.45;;;;;;;16.45;95.50;101681.59;5054478;28;20429;-74
2021/08/22 10:36:34;;;;;;;9.82;4.85;;;;;;;16.39;95.15;101672.31;5053775;28;20028;-74
2021/08/22 10:39:27;;;;;;;8.27;3.75;;;;;;;16.33;94.41;101678.31;5052284;28;20053;-74
2021/08/22 10:41:57;;;;;;;7.22;3.90;;;;;;;16.32;94.70;101681.16;5053725;28;20029;-74
2021/08/22 10:44:35;;;;;;;5.75;3.28;;;;;;;16.26;94.21;101662.94;5054137;28;20472;-76
2021/08/22 10:47:02;;;;;;;7.63;2.97;;;;;;;16.17;93.75;101667.44;5052461;28;20557;-75
2021/08/22 10:49:50;;;;;;;20.20;3.85;;;;;;;16.19;94.73;101679.69;5054171;28;20064;-73
2021/08/22 10:52:32;;;;;;;16.98;3.80;;;;;;;16.14;94.98;101681.19;5053917;28;20527;-73
2021/08/22 10:55:13;;;;;;;14.98;3.42;;;;;;;16.08;94.73;101681.78;5053310;28;20041;-73
2021/08/22 10:57:45;;;;;;;20.08;3.88;;;;;;;15.99;94.96;101689.78;5054049;28;20033;-72
2021/08/22 11:00:34;;;;;;;22.80;4.18;;;;;;;15.91;94.90;101686.16;5054017;28;20029;-72
2021/08/22 11:03:00;;;;;;;16.00;3.60;;;;;;;15.84;95.44;101692.16;5053303;28;20509;-75
2021/08/22 11:05:27;;;;;;;8.98;3.45;;;;;;;15.84;96.07;101692.16;5053824;28;20053;-73
2021/08/22 11:07:54;;;;;;;16.83;4.55;;;;;;;15.85;96.34;101684.94;5053277;28;20033;-73
2021/08/22 11:10:24;;;;;;;17.00;5.40;;;;;;;15.89;96.53;101691.69;5053702;28;20040;-73
2021/08/22 11:12:51;;;;;;;10.77;4.90;;;;;;;15.88;96.88;101690.00;5053075;28;20040;-75
2021/08/22 11:15:25;;;;;;;14.88;5.35;;;;;;;15.83;96.33;101689.63;5053917;28;20275;-75
2021/08/22 11:17:56;;;;;;;11.80;5.13;;;;;;;15.78;96.29;101700.81;5053181;28;20021;-75
2021/08/22 11:20:24;;;;;;;17.95;5.25;;;;;;;15.72;95.75;101701.41;5053557;28;20067;-75